sensor_id;sensor_type;location;lat;lon;timestamp;temperature;humidity
46552;DHT22;32278;51.810;4.712;2023-01-15T00:00:51;7.90;99.90
46552;DHT22;32278;51.810;4.712;2023-01-15T00:03:16;7.90;99.90
46552;DHT22;32278;51.810;4.712;2023-01-15T00:05:45;7.90;99.90
46552;DHT22;32278;51.810;4.712;2023-01-15T00:08:10;7.90;99.90
46552;DHT22;32278;51.810;4.712;2023-01-15T00:10:36;7.90;99.90
46552;DHT22;32278;51.810;4.712;2023-01-15T00:13:01;7.80;99.90
46552;DHT22;32278;51.810;4.712;2023-01-15T00:15:27;7.80;99.90
46552;DHT22;32278;51.810;4.712;2023-01-15T00:17:52;7.80;99.90
46552;DHT22;32278;51.810;4.712;2023-01-15T00:20:18;7.80;99.90
46552;DHT22;32278;51.810;4.712;2023-01-15T00:22:43;7.80;99.90
46552;DHT22;32278;51.810;4.712;2023-01-15T00:25:10;7.70;99.90
46552;DHT22;32278;51.810;4.712;2023-01-15T00:27:54;7.80;99.90
46552;DHT22;32278;51.810;4.712;2023-01-15T00:30:20;7.80;99.90
46552;DHT22;32278;51.810;4.712;2023-01-15T00:32:45;7.70;99.90
46552;DHT22;32278;51.810;4.712;2023-01-15T00:35:15;7.70;99.90
46552;DHT22;32278;51.810;4.712;2023-01-15T00:37:40;7.70;99.90
46552;DHT22;32278;51.810;4.712;2023-01-15T00:40:06;7.70;99.90
46552;DHT22;32278;51.810;4.712;2023-01-15T00:42:32;7.60;99.90
46552;DHT22;32278;51.810;4.712;2023-01-15T00:44:58;7.70;99.90
46552;DHT22;32278;51.810;4.712;2023-01-15T00:47:23;7.60;99.90
46552;DHT22;32278;51.810;4.712;2023-01-15T00:49:49;7.60;99.90
46552;DHT22;32278;51.810;4.712;2023-01-15T00:52:15;7.60;99.90
46552;DHT22;32278;51.810;4.712;2023-01-15T00:54:41;7.60;99.90
46552;DHT22;32278;51.810;4.712;2023-01-15T00:57:07;7.60;99.90
46552;DHT22;32278;51.810;4.712;2023-01-15T00:59:35;7.60;99.90
46552;DHT22;32278;51.810;4.712;2023-01-15T01:02:01;7.60;99.90
46552;DHT22;32278;51.810;4.712;2023-01-15T01:04:26;7.60;99.90
46552;DHT22;32278;51.810;4.712;2023-01-15T01:06:52;7.60;99.90
46552;DHT22;32278;51.810;4.712;2023-01-15T01:09:17;7.60;99.90
46552;DHT22;32278;51.810;4.712;2023-01-15T01:11:43;7.60;99.90
46552;DHT22;32278;51.810;4.712;2023-01-15T01:14:09;7.60;99.90
46552;DHT22;32278;51.810;4.712;2023-01-15T01:16:36;7.60;99.90
46552;DHT22;32278;51.810;4.712;2023-01-15T01:19:03;7.50;99.90
46552;DHT22;32278;51.810;4.712;2023-01-15T01:21:29;7.50;99.90
46552;DHT22;32278;51.810;4.712;2023-01-15T01:23:56;7.60;99.90
46552;DHT22;32278;51.810;4.712;2023-01-15T01:26:22;7.50;99.90
46552;DHT22;32278;51.810;4.712;2023-01-15T01:28:51;7.50;99.90
46552;DHT22;32278;51.810;4.712;2023-01-15T01:31:17;7.50;99.90
46552;DHT22;32278;51.810;4.712;2023-01-15T01:33:42;7.50;99.90
46552;DHT22;32278;51.810;4.712;2023-01-15T01:36:08;7.50;99.90
46552;DHT22;32278;51.810;4.712;2023-01-15T01:38:33;7.50;99.90
46552;DHT22;32278;51.810;4.712;2023-01-15T01:40:59;7.50;99.90
46552;DHT22;32278;51.810;4.712;2023-01-15T01:43:25;7.50;99.90
46552;DHT22;32278;51.810;4.712;2023-01-15T01:45:51;7.50;99.90
46552;DHT22;32278;51.810;4.712;2023-01-15T01:48:17;7.50;99.90
46552;DHT22;32278;51.810;4.712;2023-01-15T01:50:45;7.50;99.90
46552;DHT22;32278;51.810;4.712;2023-01-15T01:53:13;7.50;99.90
46552;DHT22;32278;51.810;4.712;2023-01-15T01:55:40;7.40;99.90
46552;DHT22;32278;51.810;4.712;2023-01-15T01:58:07;7.50;99.90
46552;DHT22;32278;51.810;4.712;2023-01-15T02:00:34;7.50;99.90
46552;DHT22;32278;51.810;4.712;2023-01-15T02:03:00;7.40;99.90
46552;DHT22;32278;51.810;4.712;2023-01-15T02:05:29;7.40;99.90
46552;DHT22;32278;51.810;4.712;2023-01-15T02:07:55;7.40;99.90
46552;DHT22;32278;51.810;4.712;2023-01-15T02:10:21;7.40;99.90
46552;DHT22;32278;51.810;4.712;2023-01-15T02:12:48;7.40;99.90
46552;DHT22;32278;51.810;4.712;2023-01-15T02:15:20;7.40;99.90
46552;DHT22;32278;51.810;4.712;2023-01-15T02:17:48;7.40;99.90
46552;DHT22;32278;51.810;4.712;2023-01-15T02:20:39;7.40;99.90
46552;DHT22;32278;51.810;4.712;2023-01-15T02:23:17;7.40;99.90
46552;DHT22;32278;51.810;4.712;2023-01-15T02:25:53;7.30;99.90
46552;DHT22;32278;51.810;4.712;2023-01-15T02:28:23;7.40;99.90
46552;DHT22;32278;51.810;4.712;2023-01-15T02:30:52;7.30;99.90
46552;DHT22;32278;51.810;4.712;2023-01-15T02:33:24;7.30;99.90
46552;DHT22;32278;51.810;4.712;2023-01-15T02:35:53;7.30;99.90
46552;DHT22;32278;51.810;4.712;2023-01-15T02:38:22;7.30;99.90
46552;DHT22;32278;51.810;4.712;2023-01-15T02:40:49;7.30;99.90
46552;DHT22;32278;51.810;4.712;2023-01-15T02:43:16;7.30;99.90
46552;DHT22;32278;51.810;4.712;2023-01-15T02:45:44;7.30;99.90
46552;DHT22;32278;51.810;4.712;2023-01-15T02:48:12;7.30;99.90
46552;DHT22;32278;51.810;4.712;2023-01-15T02:50:39;7.30;99.90
46552;DHT22;32278;51.810;4.712;2023-01-15T02:53:08;7.30;99.90
46552;DHT22;32278;51.810;4.712;2023-01-15T02:55:36;7.30;99.90
46552;DHT22;32278;51.810;4.712;2023-01-15T02:58:04;7.30;99.90
46552;DHT22;32278;51.810;4.712;2023-01-15T03:00:31;7.30;99.90
46552;DHT22;32278;51.810;4.712;2023-01-15T03:08:18;7.30;99.90
46552;DHT22;32278;51.810;4.712;2023-01-15T03:10:47;7.30;99.90
46552;DHT22;32278;51.810;4.712;2023-01-15T03:13:16;7.30;99.90
46552;DHT22;32278;51.810;4.712;2023-01-15T03:18:35;7.30;99.90
46552;DHT22;32278;51.810;4.712;2023-01-15T03:21:03;7.40;99.90
46552;DHT22;32278;51.810;4.712;2023-01-15T03:23:29;7.30;99.90
46552;DHT22;32278;51.810;4.712;2023-01-15T03:25:55;7.30;99.90
46552;DHT22;32278;51.810;4.712;2023-01-15T03:28:25;7.30;99.90
46552;DHT22;32278;51.810;4.712;2023-01-15T03:30:51;7.30;99.90
46552;DHT22;32278;51.810;4.712;2023-01-15T03:33:17;7.30;99.90
46552;DHT22;32278;51.810;4.712;2023-01-15T03:38:15;7.20;99.90
46552;DHT22;32278;51.810;4.712;2023-01-15T03:41:26;7.20;99.90
46552;DHT22;32278;51.810;4.712;2023-01-15T03:48:52;7.20;99.90
46552;DHT22;32278;51.810;4.712;2023-01-15T03:51:22;7.20;99.90
46552;DHT22;32278;51.810;4.712;2023-01-15T03:53:49;7.20;99.90
46552;DHT22;32278;51.810;4.712;2023-01-15T03:58:46;7.30;99.90
46552;DHT22;32278;51.810;4.712;2023-01-15T04:01:14;7.20;99.90
46552;DHT22;32278;51.810;4.712;2023-01-15T04:03:40;7.20;99.90
46552;DHT22;32278;51.810;4.712;2023-01-15T04:06:06;7.20;99.90
46552;DHT22;32278;51.810;4.712;2023-01-15T04:08:34;7.20;99.90
46552;DHT22;32278;51.810;4.712;2023-01-15T04:11:02;7.20;99.90
46552;DHT22;32278;51.810;4.712;2023-01-15T04:13:28;7.20;99.90
46552;DHT22;32278;51.810;4.712;2023-01-15T04:15:53;7.10;99.90
46552;DHT22;32278;51.810;4.712;2023-01-15T04:18:19;7.10;99.90
46552;DHT22;32278;51.810;4.712;2023-01-15T04:20:45;7.20;99.90
46552;DHT22;32278;51.810;4.712;2023-01-15T04:23:10;7.10;99.90
46552;DHT22;32278;51.810;4.712;2023-01-15T04:25:36;7.10;99.90
46552;DHT22;32278;51.810;4.712;2023-01-15T04:28:02;7.10;99.90
46552;DHT22;32278;51.810;4.712;2023-01-15T04:30:28;7.10;99.90
46552;DHT22;32278;51.810;4.712;2023-01-15T04:32:53;7.10;99.90
46552;DHT22;32278;51.810;4.712;2023-01-15T04:35:19;7.00;99.90
46552;DHT22;32278;51.810;4.712;2023-01-15T04:37:44;7.00;99.90
46552;DHT22;32278;51.810;4.712;2023-01-15T04:40:10;7.00;99.90
46552;DHT22;32278;51.810;4.712;2023-01-15T04:42:56;7.00;99.90
46552;DHT22;32278;51.810;4.712;2023-01-15T04:45:42;6.90;99.90
46552;DHT22;32278;51.810;4.712;2023-01-15T04:48:07;6.90;99.90
46552;DHT22;32278;51.810;4.712;2023-01-15T04:50:33;6.90;99.90
46552;DHT22;32278;51.810;4.712;2023-01-15T04:52:58;6.90;99.90
46552;DHT22;32278;51.810;4.712;2023-01-15T04:55:24;6.90;99.90
46552;DHT22;32278;51.810;4.712;2023-01-15T04:57:49;6.90;99.90
46552;DHT22;32278;51.810;4.712;2023-01-15T05:00:15;6.80;99.90
46552;DHT22;32278;51.810;4.712;2023-01-15T05:02:40;6.90;99.90
46552;DHT22;32278;51.810;4.712;2023-01-15T05:05:06;6.80;99.90
46552;DHT22;32278;51.810;4.712;2023-01-15T05:07:31;6.80;99.90
46552;DHT22;32278;51.810;4.712;2023-01-15T05:09:57;6.80;99.90
46552;DHT22;32278;51.810;4.712;2023-01-15T05:12:22;6.80;99.90
46552;DHT22;32278;51.810;4.712;2023-01-15T05:14:48;6.80;99.90
46552;DHT22;32278;51.810;4.712;2023-01-15T05:17:13;6.80;99.90
46552;DHT22;32278;51.810;4.712;2023-01-15T05:19:39;6.80;99.90
46552;DHT22;32278;51.810;4.712;2023-01-15T05:22:04;6.80;99.90
46552;DHT22;32278;51.810;4.712;2023-01-15T05:24:30;6.80;99.90
46552;DHT22;32278;51.810;4.712;2023-01-15T05:26:55;6.70;99.90
46552;DHT22;32278;51.810;4.712;2023-01-15T05:29:22;6.80;99.90
46552;DHT22;32278;51.810;4.712;2023-01-15T05:31:48;6.70;99.90
46552;DHT22;32278;51.810;4.712;2023-01-15T05:34:13;6.70;99.90
46552;DHT22;32278;51.810;4.712;2023-01-15T05:36:39;6.70;99.90
46552;DHT22;32278;51.810;4.712;2023-01-15T05:39:05;6.70;99.90
46552;DHT22;32278;51.810;4.712;2023-01-15T05:41:30;6.70;99.90
46552;DHT22;32278;51.810;4.712;2023-01-15T05:44:21;6.70;99.90
46552;DHT22;32278;51.810;4.712;2023-01-15T05:46:48;6.70;99.90
46552;DHT22;32278;51.810;4.712;2023-01-15T05:49:15;6.70;99.90
46552;DHT22;32278;51.810;4.712;2023-01-15T05:51:41;6.70;99.90
46552;DHT22;32278;51.810;4.712;2023-01-15T05:54:08;6.70;99.90
46552;DHT22;32278;51.810;4.712;2023-01-15T05:56:35;6.70;99.90
46552;DHT22;32278;51.810;4.712;2023-01-15T05:59:01;6.70;99.90
46552;DHT22;32278;51.810;4.712;2023-01-15T06:01:27;6.80;99.90
46552;DHT22;32278;51.810;4.712;2023-01-15T06:03:52;6.80;99.90
46552;DHT22;32278;51.810;4.712;2023-01-15T06:06:20;6.90;99.90
46552;DHT22;32278;51.810;4.712;2023-01-15T06:08:45;6.90;99.90
46552;DHT22;32278;51.810;4.712;2023-01-15T06:11:11;6.90;99.90
46552;DHT22;32278;51.810;4.712;2023-01-15T06:13:37;6.90;99.90
46552;DHT22;32278;51.810;4.712;2023-01-15T06:16:04;6.80;99.90
46552;DHT22;32278;51.810;4.712;2023-01-15T06:18:29;6.70;99.90
46552;DHT22;32278;51.810;4.712;2023-01-15T06:20:55;6.70;99.90
46552;DHT22;32278;51.810;4.712;2023-01-15T06:23:20;6.70;99.90
46552;DHT22;32278;51.810;4.712;2023-01-15T06:25:46;6.60;99.90
46552;DHT22;32278;51.810;4.712;2023-01-15T06:28:11;6.60;99.90
46552;DHT22;32278;51.810;4.712;2023-01-15T06:30:37;6.60;99.90
46552;DHT22;32278;51.810;4.712;2023-01-15T06:33:04;6.50;99.90
46552;DHT22;32278;51.810;4.712;2023-01-15T06:35:30;6.50;99.90
46552;DHT22;32278;51.810;4.712;2023-01-15T06:37:55;6.50;99.90
46552;DHT22;32278;51.810;4.712;2023-01-15T06:40:21;6.40;99.90
46552;DHT22;32278;51.810;4.712;2023-01-15T06:42:48;6.40;99.90
46552;DHT22;32278;51.810;4.712;2023-01-15T06:45:36;6.40;99.90
46552;DHT22;32278;51.810;4.712;2023-01-15T06:48:22;6.40;99.90
46552;DHT22;32278;51.810;4.712;2023-01-15T06:50:47;6.30;99.90
46552;DHT22;32278;51.810;4.712;2023-01-15T06:53:13;6.30;99.90
46552;DHT22;32278;51.810;4.712;2023-01-15T06:55:38;6.30;99.90
46552;DHT22;32278;51.810;4.712;2023-01-15T06:58:04;6.20;99.90
46552;DHT22;32278;51.810;4.712;2023-01-15T07:00:29;6.20;99.90
46552;DHT22;32278;51.810;4.712;2023-01-15T07:02:55;6.20;99.90
46552;DHT22;32278;51.810;4.712;2023-01-15T07:05:20;6.20;99.90
46552;DHT22;32278;51.810;4.712;2023-01-15T07:07:46;6.20;99.90
46552;DHT22;32278;51.810;4.712;2023-01-15T07:10:11;6.30;99.90
46552;DHT22;32278;51.810;4.712;2023-01-15T07:12:36;6.30;99.90
46552;DHT22;32278;51.810;4.712;2023-01-15T07:15:02;6.30;99.90
46552;DHT22;32278;51.810;4.712;2023-01-15T07:17:28;6.30;99.90
46552;DHT22;32278;51.810;4.712;2023-01-15T07:19:53;6.30;99.90
46552;DHT22;32278;51.810;4.712;2023-01-15T07:22:19;6.30;99.90
46552;DHT22;32278;51.810;4.712;2023-01-15T07:24:44;6.30;99.90
46552;DHT22;32278;51.810;4.712;2023-01-15T07:27:10;6.30;99.90
46552;DHT22;32278;51.810;4.712;2023-01-15T07:29:35;6.20;99.90
46552;DHT22;32278;51.810;4.712;2023-01-15T07:32:01;6.20;99.90
46552;DHT22;32278;51.810;4.712;2023-01-15T07:34:26;6.20;99.90
46552;DHT22;32278;51.810;4.712;2023-01-15T07:36:52;6.30;99.90
46552;DHT22;32278;51.810;4.712;2023-01-15T07:39:17;6.20;99.90
46552;DHT22;32278;51.810;4.712;2023-01-15T07:41:43;6.20;99.90
46552;DHT22;32278;51.810;4.712;2023-01-15T07:44:27;6.20;99.90
46552;DHT22;32278;51.810;4.712;2023-01-15T07:47:15;6.20;99.90
46552;DHT22;32278;51.810;4.712;2023-01-15T07:50:00;6.20;99.90
46552;DHT22;32278;51.810;4.712;2023-01-15T07:52:26;6.20;99.90
46552;DHT22;32278;51.810;4.712;2023-01-15T07:54:51;6.20;99.90
46552;DHT22;32278;51.810;4.712;2023-01-15T07:57:18;6.20;99.90
46552;DHT22;32278;51.810;4.712;2023-01-15T07:59:44;6.20;99.90
46552;DHT22;32278;51.810;4.712;2023-01-15T08:02:09;6.20;99.90
46552;DHT22;32278;51.810;4.712;2023-01-15T08:04:35;6.20;99.90
46552;DHT22;32278;51.810;4.712;2023-01-15T08:07:01;6.30;99.90
46552;DHT22;32278;51.810;4.712;2023-01-15T08:09:27;6.20;99.90
46552;DHT22;32278;51.810;4.712;2023-01-15T08:11:53;6.20;99.90
46552;DHT22;32278;51.810;4.712;2023-01-15T08:14:37;6.20;99.90
46552;DHT22;32278;51.810;4.712;2023-01-15T08:17:21;6.10;99.90
46552;DHT22;32278;51.810;4.712;2023-01-15T08:19:46;6.10;99.90
46552;DHT22;32278;51.810;4.712;2023-01-15T08:22:12;6.20;99.90
46552;DHT22;32278;51.810;4.712;2023-01-15T08:24:37;6.20;99.90
46552;DHT22;32278;51.810;4.712;2023-01-15T08:27:03;6.30;99.90
46552;DHT22;32278;51.810;4.712;2023-01-15T08:29:28;6.40;99.90
46552;DHT22;32278;51.810;4.712;2023-01-15T08:31:54;6.40;99.90
46552;DHT22;32278;51.810;4.712;2023-01-15T08:34:20;6.40;99.90
46552;DHT22;32278;51.810;4.712;2023-01-15T08:36:45;6.30;99.90
46552;DHT22;32278;51.810;4.712;2023-01-15T08:39:11;6.30;99.90
46552;DHT22;32278;51.810;4.712;2023-01-15T08:41:36;6.40;99.90
46552;DHT22;32278;51.810;4.712;2023-01-15T08:44:02;6.40;99.90
46552;DHT22;32278;51.810;4.712;2023-01-15T08:46:27;6.30;99.90
46552;DHT22;32278;51.810;4.712;2023-01-15T08:48:53;6.40;99.90
46552;DHT22;32278;51.810;4.712;2023-01-15T08:51:18;6.40;99.90
46552;DHT22;32278;51.810;4.712;2023-01-15T08:53:44;6.40;99.90
46552;DHT22;32278;51.810;4.712;2023-01-15T08:56:13;6.30;99.90
46552;DHT22;32278;51.810;4.712;2023-01-15T08:58:39;6.40;99.90
46552;DHT22;32278;51.810;4.712;2023-01-15T09:01:05;6.40;99.90
46552;DHT22;32278;51.810;4.712;2023-01-15T09:03:31;6.40;99.90
46552;DHT22;32278;51.810;4.712;2023-01-15T09:05:57;6.50;99.90
46552;DHT22;32278;51.810;4.712;2023-01-15T09:08:23;6.50;99.90
46552;DHT22;32278;51.810;4.712;2023-01-15T09:10:49;6.50;99.90
46552;DHT22;32278;51.810;4.712;2023-01-15T09:13:15;6.50;99.90
46552;DHT22;32278;51.810;4.712;2023-01-15T09:15:40;6.50;99.90
46552;DHT22;32278;51.810;4.712;2023-01-15T09:18:06;6.60;99.90
46552;DHT22;32278;51.810;4.712;2023-01-15T09:20:31;6.60;99.90
46552;DHT22;32278;51.810;4.712;2023-01-15T09:22:57;6.60;99.90
46552;DHT22;32278;51.810;4.712;2023-01-15T09:25:22;6.60;99.90
46552;DHT22;32278;51.810;4.712;2023-01-15T09:27:48;6.60;99.90
46552;DHT22;32278;51.810;4.712;2023-01-15T09:30:21;6.70;99.90
46552;DHT22;32278;51.810;4.712;2023-01-15T09:32:46;6.70;99.90
46552;DHT22;32278;51.810;4.712;2023-01-15T09:35:12;6.70;99.90
46552;DHT22;32278;51.810;4.712;2023-01-15T09:37:37;6.80;99.90
46552;DHT22;32278;51.810;4.712;2023-01-15T09:40:04;6.90;99.90
46552;DHT22;32278;51.810;4.712;2023-01-15T09:42:51;6.80;99.90
46552;DHT22;32278;51.810;4.712;2023-01-15T09:50:17;6.80;99.90
46552;DHT22;32278;51.810;4.712;2023-01-15T09:52:59;6.90;99.90
46552;DHT22;32278;51.810;4.712;2023-01-15T09:55:29;6.80;99.90
46552;DHT22;32278;51.810;4.712;2023-01-15T09:57:57;6.80;99.90
46552;DHT22;32278;51.810;4.712;2023-01-15T10:00:24;6.80;99.90
46552;DHT22;32278;51.810;4.712;2023-01-15T10:02:57;6.80;99.90
46552;DHT22;32278;51.810;4.712;2023-01-15T10:05:34;6.90;99.90
46552;DHT22;32278;51.810;4.712;2023-01-15T10:10:47;7.00;99.90
46552;DHT22;32278;51.810;4.712;2023-01-15T10:15:58;7.10;99.90
46552;DHT22;32278;51.810;4.712;2023-01-15T10:18:24;7.10;99.90
46552;DHT22;32278;51.810;4.712;2023-01-15T10:21:11;7.20;99.90
46552;DHT22;32278;51.810;4.712;2023-01-15T10:23:59;7.20;99.90
46552;DHT22;32278;51.810;4.712;2023-01-15T10:29:05;7.30;99.90
46552;DHT22;32278;51.810;4.712;2023-01-15T10:31:53;7.40;99.90
46552;DHT22;32278;51.810;4.712;2023-01-15T10:34:25;7.50;99.90
46552;DHT22;32278;51.810;4.712;2023-01-15T10:44:51;7.50;99.90
46552;DHT22;32278;51.810;4.712;2023-01-15T10:47:21;7.50;99.90
46552;DHT22;32278;51.810;4.712;2023-01-15T10:49:50;7.40;99.90
46552;DHT22;32278;51.810;4.712;2023-01-15T10:52:26;7.40;99.90
46552;DHT22;32278;51.810;4.712;2023-01-15T10:54:56;7.40;99.90
46552;DHT22;32278;51.810;4.712;2023-01-15T10:57:35;7.40;99.90
46552;DHT22;32278;51.810;4.712;2023-01-15T11:00:04;7.50;99.90
46552;DHT22;32278;51.810;4.712;2023-01-15T11:04:55;7.40;99.90
46552;DHT22;32278;51.810;4.712;2023-01-15T11:07:22;7.30;99.90
46552;DHT22;32278;51.810;4.712;2023-01-15T11:09:50;7.20;99.90
46552;DHT22;32278;51.810;4.712;2023-01-15T11:12:26;7.20;99.90
46552;DHT22;32278;51.810;4.712;2023-01-15T11:14:52;7.20;99.90
46552;DHT22;32278;51.810;4.712;2023-01-15T11:17:37;7.10;99.90
46552;DHT22;32278;51.810;4.712;2023-01-15T11:22:53;7.10;99.90
46552;DHT22;32278;51.810;4.712;2023-01-15T11:25:27;7.10;99.90
46552;DHT22;32278;51.810;4.712;2023-01-15T11:27:52;7.20;99.90
46552;DHT22;32278;51.810;4.712;2023-01-15T11:30:26;7.30;99.90
46552;DHT22;32278;51.810;4.712;2023-01-15T11:32:56;7.20;99.90
46552;DHT22;32278;51.810;4.712;2023-01-15T11:35:22;7.20;99.90
46552;DHT22;32278;51.810;4.712;2023-01-15T11:37:48;7.20;99.90
46552;DHT22;32278;51.810;4.712;2023-01-15T11:40:17;7.20;99.90
46552;DHT22;32278;51.810;4.712;2023-01-15T11:42:47;7.20;99.90
46552;DHT22;32278;51.810;4.712;2023-01-15T11:45:31;7.10;99.90
46552;DHT22;32278;51.810;4.712;2023-01-15T11:48:22;7.10;99.90
46552;DHT22;32278;51.810;4.712;2023-01-15T11:51:07;7.10;99.90
46552;DHT22;32278;51.810;4.712;2023-01-15T11:53:37;7.10;99.90
46552;DHT22;32278;51.810;4.712;2023-01-15T11:56:07;7.00;99.90
46552;DHT22;32278;51.810;4.712;2023-01-15T11:58:42;7.30;99.90
46552;DHT22;32278;51.810;4.712;2023-01-15T12:01:11;7.20;99.90
46552;DHT22;32278;51.810;4.712;2023-01-15T12:03:38;7.20;99.90
46552;DHT22;32278;51.810;4.712;2023-01-15T12:06:06;7.20;99.90
46552;DHT22;32278;51.810;4.712;2023-01-15T12:13:52;7.40;99.90
46552;DHT22;32278;51.810;4.712;2023-01-15T12:16:23;7.40;99.90
46552;DHT22;32278;51.810;4.712;2023-01-15T12:18:55;7.40;99.90
46552;DHT22;32278;51.810;4.712;2023-01-15T12:26:56;7.50;99.90
46552;DHT22;32278;51.810;4.712;2023-01-15T12:29:28;7.40;99.90
46552;DHT22;32278;51.810;4.712;2023-01-15T12:32:00;7.50;99.90
46552;DHT22;32278;51.810;4.712;2023-01-15T12:39:26;7.50;99.90
46552;DHT22;32278;51.810;4.712;2023-01-15T12:41:53;7.40;99.90
46552;DHT22;32278;51.810;4.712;2023-01-15T12:45:14;7.40;99.90
46552;DHT22;32278;51.810;4.712;2023-01-15T12:47:34;7.40;99.90
46552;DHT22;32278;51.810;4.712;2023-01-15T12:52:32;7.40;99.90
46552;DHT22;32278;51.810;4.712;2023-01-15T12:55:06;7.40;99.90
46552;DHT22;32278;51.810;4.712;2023-01-15T12:57:34;7.40;99.90
46552;DHT22;32278;51.810;4.712;2023-01-15T13:00:11;7.40;99.90
46552;DHT22;32278;51.810;4.712;2023-01-15T13:02:59;7.40;99.90
46552;DHT22;32278;51.810;4.712;2023-01-15T13:05:28;7.40;99.90
46552;DHT22;32278;51.810;4.712;2023-01-15T13:07:55;7.30;99.90
46552;DHT22;32278;51.810;4.712;2023-01-15T13:10:23;7.30;99.90
46552;DHT22;32278;51.810;4.712;2023-01-15T13:12:50;7.40;99.90
46552;DHT22;32278;51.810;4.712;2023-01-15T13:15:16;7.40;99.90
46552;DHT22;32278;51.810;4.712;2023-01-15T13:20:28;7.50;99.90
46552;DHT22;32278;51.810;4.712;2023-01-15T13:25:33;7.50;99.90
46552;DHT22;32278;51.810;4.712;2023-01-15T13:28:07;7.50;99.90
46552;DHT22;32278;51.810;4.712;2023-01-15T13:30:50;7.60;99.90
46552;DHT22;32278;51.810;4.712;2023-01-15T13:36:56;7.50;99.90
46552;DHT22;32278;51.810;4.712;2023-01-15T13:38:52;7.50;99.90
46552;DHT22;32278;51.810;4.712;2023-01-15T13:41:19;7.60;99.90
46552;DHT22;32278;51.810;4.712;2023-01-15T13:44:10;7.60;99.90
46552;DHT22;32278;51.810;4.712;2023-01-15T13:46:38;7.60;99.90
46552;DHT22;32278;51.810;4.712;2023-01-15T13:49:04;7.60;99.90
46552;DHT22;32278;51.810;4.712;2023-01-15T13:51:33;7.50;99.90
46552;DHT22;32278;51.810;4.712;2023-01-15T13:54:03;7.50;99.90
46552;DHT22;32278;51.810;4.712;2023-01-15T13:56:32;7.50;99.90
46552;DHT22;32278;51.810;4.712;2023-01-15T13:59:01;7.50;99.90
46552;DHT22;32278;51.810;4.712;2023-01-15T14:03:59;7.60;99.90
46552;DHT22;32278;51.810;4.712;2023-01-15T14:06:35;7.70;99.90
46552;DHT22;32278;51.810;4.712;2023-01-15T14:09:01;7.70;99.90
46552;DHT22;32278;51.810;4.712;2023-01-15T14:11:30;7.80;99.90
46552;DHT22;32278;51.810;4.712;2023-01-15T14:14:05;7.80;99.90
46552;DHT22;32278;51.810;4.712;2023-01-15T14:16:49;7.80;99.90
46552;DHT22;32278;51.810;4.712;2023-01-15T14:26:59;7.60;99.90
46552;DHT22;32278;51.810;4.712;2023-01-15T14:34:43;7.60;99.90
46552;DHT22;32278;51.810;4.712;2023-01-15T14:42:15;7.60;99.90
46552;DHT22;32278;51.810;4.712;2023-01-15T14:45:04;7.50;99.90
46552;DHT22;32278;51.810;4.712;2023-01-15T14:48:17;7.50;99.90
46552;DHT22;32278;51.810;4.712;2023-01-15T14:52:52;7.60;99.90
46552;DHT22;32278;51.810;4.712;2023-01-15T14:55:19;7.50;99.90
46552;DHT22;32278;51.810;4.712;2023-01-15T14:57:51;7.50;99.90
46552;DHT22;32278;51.810;4.712;2023-01-15T15:00:19;7.50;99.90
46552;DHT22;32278;51.810;4.712;2023-01-15T15:02:45;7.50;99.90
46552;DHT22;32278;51.810;4.712;2023-01-15T15:05:13;7.50;99.90
46552;DHT22;32278;51.810;4.712;2023-01-15T15:07:41;7.50;99.90
46552;DHT22;32278;51.810;4.712;2023-01-15T15:10:10;7.50;99.90
46552;DHT22;32278;51.810;4.712;2023-01-15T15:22:47;7.20;99.90
46552;DHT22;32278;51.810;4.712;2023-01-15T15:25:16;7.20;99.90
46552;DHT22;32278;51.810;4.712;2023-01-15T15:27:43;7.20;99.90
46552;DHT22;32278;51.810;4.712;2023-01-15T15:30:09;7.20;99.90
46552;DHT22;32278;51.810;4.712;2023-01-15T15:32:36;7.20;99.90
46552;DHT22;32278;51.810;4.712;2023-01-15T15:35:04;7.20;99.90
46552;DHT22;32278;51.810;4.712;2023-01-15T15:37:42;7.20;99.90
46552;DHT22;32278;51.810;4.712;2023-01-15T15:42:40;7.20;99.90
46552;DHT22;32278;51.810;4.712;2023-01-15T15:45:27;7.20;99.90
46552;DHT22;32278;51.810;4.712;2023-01-15T15:50:55;7.20;99.90
46552;DHT22;32278;51.810;4.712;2023-01-15T15:53:20;7.20;99.90
46552;DHT22;32278;51.810;4.712;2023-01-15T15:55:48;7.10;99.90
46552;DHT22;32278;51.810;4.712;2023-01-15T15:58:17;7.10;99.90
46552;DHT22;32278;51.810;4.712;2023-01-15T16:00:45;7.00;99.90
46552;DHT22;32278;51.810;4.712;2023-01-15T16:03:16;7.00;99.90
46552;DHT22;32278;51.810;4.712;2023-01-15T16:05:52;7.00;99.90
46552;DHT22;32278;51.810;4.712;2023-01-15T16:08:19;7.00;99.90
46552;DHT22;32278;51.810;4.712;2023-01-15T16:10:45;6.90;99.90
46552;DHT22;32278;51.810;4.712;2023-01-15T16:13:15;6.90;99.90
46552;DHT22;32278;51.810;4.712;2023-01-15T16:15:43;6.80;99.90
46552;DHT22;32278;51.810;4.712;2023-01-15T16:18:28;6.80;99.90
46552;DHT22;32278;51.810;4.712;2023-01-15T16:20:55;6.80;99.90
46552;DHT22;32278;51.810;4.712;2023-01-15T16:23:30;6.80;99.90
46552;DHT22;32278;51.810;4.712;2023-01-15T16:28:22;6.70;99.90
46552;DHT22;32278;51.810;4.712;2023-01-15T16:30:58;6.70;99.90
46552;DHT22;32278;51.810;4.712;2023-01-15T16:33:24;6.70;99.90
46552;DHT22;32278;51.810;4.712;2023-01-15T16:35:56;6.70;99.90
46552;DHT22;32278;51.810;4.712;2023-01-15T16:38:22;6.70;99.90
46552;DHT22;32278;51.810;4.712;2023-01-15T16:40:48;6.70;99.90
46552;DHT22;32278;51.810;4.712;2023-01-15T16:43:18;6.70;99.90
46552;DHT22;32278;51.810;4.712;2023-01-15T16:50:49;6.60;99.90
46552;DHT22;32278;51.810;4.712;2023-01-15T16:55:52;6.60;99.90
46552;DHT22;32278;51.810;4.712;2023-01-15T16:58:30;6.60;99.90
46552;DHT22;32278;51.810;4.712;2023-01-15T17:00:56;6.50;99.90
46552;DHT22;32278;51.810;4.712;2023-01-15T17:03:23;6.50;99.90
46552;DHT22;32278;51.810;4.712;2023-01-15T17:05:53;6.50;99.90
46552;DHT22;32278;51.810;4.712;2023-01-15T17:08:23;6.50;99.90
46552;DHT22;32278;51.810;4.712;2023-01-15T17:10:53;6.50;99.90
46552;DHT22;32278;51.810;4.712;2023-01-15T17:13:19;6.40;99.90
46552;DHT22;32278;51.810;4.712;2023-01-15T17:15:45;6.40;99.90
46552;DHT22;32278;51.810;4.712;2023-01-15T17:18:18;6.40;99.90
46552;DHT22;32278;51.810;4.712;2023-01-15T17:20:43;6.40;99.90
46552;DHT22;32278;51.810;4.712;2023-01-15T17:23:10;6.30;99.90
46552;DHT22;32278;51.810;4.712;2023-01-15T17:25:36;6.40;99.90
46552;DHT22;32278;51.810;4.712;2023-01-15T17:28:02;6.30;99.90
46552;DHT22;32278;51.810;4.712;2023-01-15T17:30:29;6.30;99.90
46552;DHT22;32278;51.810;4.712;2023-01-15T17:32:59;6.20;99.90
46552;DHT22;32278;51.810;4.712;2023-01-15T17:35:26;6.20;99.90
46552;DHT22;32278;51.810;4.712;2023-01-15T17:37:52;6.20;99.90
46552;DHT22;32278;51.810;4.712;2023-01-15T17:40:18;6.10;99.90
46552;DHT22;32278;51.810;4.712;2023-01-15T17:42:44;6.10;99.90
46552;DHT22;32278;51.810;4.712;2023-01-15T17:45:16;6.10;99.90
46552;DHT22;32278;51.810;4.712;2023-01-15T17:47:42;6.10;99.90
46552;DHT22;32278;51.810;4.712;2023-01-15T17:50:08;6.10;99.90
46552;DHT22;32278;51.810;4.712;2023-01-15T17:52:33;6.00;99.90
46552;DHT22;32278;51.810;4.712;2023-01-15T17:54:59;6.10;99.90